createdAt,value
2018-04-07T00:02:17.780Z,100687.73
2018-04-07T00:04:46.044Z,100682.83
2018-04-07T00:07:14.324Z,100683.94
2018-04-07T00:09:42.608Z,100680.84
2018-04-07T00:12:10.880Z,100682.49
2018-04-07T00:14:39.151Z,100683.83
2018-04-07T00:17:07.420Z,100694.16
2018-04-07T00:19:35.695Z,100691.70
2018-04-07T00:22:03.960Z,100696.17
2018-04-07T00:24:32.243Z,100693.02
2018-04-07T00:27:00.511Z,100693.46
2018-04-07T00:29:28.793Z,100704.41
2018-04-07T00:31:57.060Z,100709.66
2018-04-07T00:34:25.331Z,100711.33
2018-04-07T00:36:53.600Z,100701.70
2018-04-07T00:39:21.872Z,100714.03
2018-04-07T00:41:50.144Z,100716.16
2018-04-07T00:44:18.419Z,100718.84
2018-04-07T00:46:46.688Z,100720.70
2018-04-07T00:49:14.955Z,100714.56
2018-04-07T00:51:43.232Z,100716.30
2018-04-07T00:54:12.185Z,100710.61
2018-04-07T00:56:40.464Z,100709.38
2018-04-07T00:59:08.731Z,100707.19
2018-04-07T01:01:37.013Z,100701.16
2018-04-07T01:04:05.287Z,100706.38
2018-04-07T01:06:33.555Z,100697.70
2018-04-07T01:09:01.823Z,100699.98
2018-04-07T01:11:30.088Z,100706.81
2018-04-07T01:13:58.367Z,100701.69
2018-04-07T01:16:26.636Z,100698.59
2018-04-07T01:18:55.148Z,100707.28
2018-04-07T01:21:23.408Z,100701.31
2018-04-07T01:23:51.691Z,100695.78
2018-04-07T01:26:19.957Z,100696.19
2018-04-07T01:28:48.228Z,100693.17
2018-04-07T01:31:16.506Z,100693.20
2018-04-07T01:33:44.771Z,100689.80
2018-04-07T01:36:13.055Z,100679.41
2018-04-07T01:38:41.319Z,100677.25
2018-04-07T01:41:09.607Z,100666.45
2018-04-07T01:43:37.869Z,100654.73
2018-04-07T01:46:06.427Z,100648.72
2018-04-07T01:48:34.683Z,100646.98
2018-04-07T01:51:02.959Z,100650.91
2018-04-07T01:53:31.228Z,100639.21
2018-04-07T01:55:59.500Z,100646.98
2018-04-07T01:58:27.778Z,100639.17
2018-04-07T02:00:56.064Z,100637.44
2018-04-07T02:03:24.348Z,100639.23
2018-04-07T02:05:52.625Z,100636.60
2018-04-07T02:08:20.899Z,100630.95
2018-04-07T02:10:49.168Z,100637.91
2018-04-07T02:13:17.432Z,100635.31
2018-04-07T02:15:45.711Z,100627.93
2018-04-07T02:18:13.980Z,100627.05
2018-04-07T02:20:42.256Z,100632.27
2018-04-07T02:23:10.528Z,100630.11
2018-04-07T02:25:38.804Z,100632.27
2018-04-07T02:28:07.075Z,100624.50
2018-04-07T02:30:35.359Z,100625.79
2018-04-07T02:33:03.628Z,100623.63
2018-04-07T02:35:31.900Z,100617.15
2018-04-07T02:38:00.188Z,100619.80
2018-04-07T02:40:28.456Z,100621.07
2018-04-07T02:42:56.728Z,100613.70
2018-04-07T02:45:24.996Z,100614.14
2018-04-07T02:47:53.272Z,100608.11
2018-04-07T02:50:21.539Z,100607.67
2018-04-07T02:52:50.086Z,100610.28
2018-04-07T02:55:18.347Z,100600.75
2018-04-07T02:57:46.626Z,100597.30
2018-04-07T03:00:14.913Z,100599.47
2018-04-07T03:02:43.187Z,100598.61
2018-04-07T03:05:11.464Z,100598.64
2018-04-07T03:07:39.748Z,100597.80
2018-04-07T03:10:08.023Z,100597.77
2018-04-07T03:12:36.287Z,100601.67
2018-04-07T03:15:04.571Z,100592.59
2018-04-07T03:17:32.844Z,100594.33
2018-04-07T03:20:01.115Z,100593.42
2018-04-07T03:22:29.389Z,100592.14
2018-04-07T03:24:57.656Z,100587.79
2018-04-07T03:27:25.927Z,100584.29
2018-04-07T03:29:54.195Z,100586.45
2018-04-07T03:32:22.496Z,100595.98
2018-04-07T03:34:50.768Z,100589.08
2018-04-07T03:37:19.056Z,100583.00
2018-04-07T03:39:47.330Z,100595.11
2018-04-07T03:42:15.596Z,100592.05
2018-04-07T03:44:43.871Z,100597.23
2018-04-07T03:47:12.139Z,100595.52
2018-04-07T03:49:40.423Z,100594.23
2018-04-07T03:52:08.691Z,100594.64
2018-04-07T03:54:36.989Z,100601.17
2018-04-07T03:57:05.255Z,100605.03
2018-04-07T03:59:33.527Z,100612.45
2018-04-07T04:02:01.808Z,100608.12
2018-04-07T04:04:30.075Z,100615.90
2018-04-07T04:06:58.351Z,100610.72
2018-04-07T04:09:26.615Z,100607.27
2018-04-07T04:11:54.904Z,100606.41
2018-04-07T04:14:23.175Z,100611.19
2018-04-07T04:16:51.438Z,100605.53
2018-04-07T04:19:19.719Z,100605.55
2018-04-07T04:21:47.992Z,100610.34
2018-04-07T04:24:16.271Z,100609.44
2018-04-07T04:26:44.540Z,100617.21
2018-04-07T04:29:12.817Z,100613.30
2018-04-07T04:31:41.079Z,100613.36
2018-04-07T04:34:09.381Z,100615.05
2018-04-07T04:36:37.646Z,100611.59
2018-04-07T04:39:05.956Z,100602.97
2018-04-07T04:41:34.448Z,100599.92
2018-04-07T04:44:02.717Z,100598.62
2018-04-07T04:46:30.996Z,100595.18
2018-04-07T04:48:59.263Z,100584.81
2018-04-07T04:51:27.543Z,100583.92
2018-04-07T04:53:55.817Z,100583.11
2018-04-07T04:56:24.104Z,100580.52
2018-04-07T04:58:52.380Z,100589.14
2018-04-07T05:01:20.647Z,100581.84
2018-04-07T05:03:48.927Z,100590.02
2018-04-07T05:06:17.195Z,100590.86
2018-04-07T05:08:45.475Z,100590.02
2018-04-07T05:11:13.756Z,100594.34
2018-04-07T05:13:42.052Z,100595.23
2018-04-07T05:16:10.312Z,100589.59
2018-04-07T05:18:38.600Z,100602.12
2018-04-07T05:21:06.876Z,100595.22
2018-04-07T05:23:35.147Z,100596.50
2018-04-07T05:26:03.427Z,100594.37
2018-04-07T05:28:31.707Z,100609.48
2018-04-07T05:31:00.008Z,100599.09
2018-04-07T05:33:28.279Z,100593.89
2018-04-07T05:35:56.561Z,100595.17
2018-04-07T05:38:24.831Z,100593.88
2018-04-07T05:40:53.374Z,100592.98
2018-04-07T05:43:21.651Z,100587.36
2018-04-07T05:45:49.968Z,100596.84
2018-04-07T05:48:18.216Z,100601.58
2018-04-07T05:50:46.488Z,100596.86
2018-04-07T05:53:14.781Z,100599.87
2018-04-07T05:55:43.065Z,100605.91
2018-04-07T05:58:11.339Z,100612.81
2018-04-07T06:00:39.620Z,100605.41
2018-04-07T06:03:07.899Z,100611.48
2018-04-07T06:05:36.184Z,100621.48
2018-04-07T06:08:04.455Z,100619.73
2018-04-07T06:10:32.739Z,100615.84
2018-04-07T06:13:01.020Z,100623.15
2018-04-07T06:15:29.303Z,100624.03
2018-04-07T06:17:57.579Z,100626.54
2018-04-07T06:20:25.851Z,100627.44
2018-04-07T06:22:54.159Z,100628.73
2018-04-07T06:25:22.408Z,100624.32
2018-04-07T06:27:50.951Z,100628.17
2018-04-07T06:30:19.219Z,100626.92
2018-04-07T06:32:47.492Z,100631.22
2018-04-07T06:35:15.779Z,100623.77
2018-04-07T06:37:44.062Z,100627.27
2018-04-07T06:40:12.338Z,100628.86
2018-04-07T06:42:40.607Z,100615.34
2018-04-07T06:45:09.152Z,100617.72
2018-04-07T06:47:37.442Z,100614.66
2018-04-07T06:50:05.699Z,100612.23
2018-04-07T06:52:33.992Z,100610.22
2018-04-07T06:55:02.297Z,100597.03
2018-04-07T06:57:30.555Z,100599.03
2018-04-07T06:59:58.828Z,100598.73
2018-04-07T07:02:27.358Z,100609.07
2018-04-07T07:04:55.635Z,100604.47
2018-04-07T07:07:23.907Z,100605.12
2018-04-07T07:09:52.191Z,100609.86
2018-04-07T07:12:20.471Z,100594.77
2018-04-07T07:14:48.752Z,100593.42
2018-04-07T07:17:17.083Z,100595.27
2018-04-07T07:19:45.385Z,100604.28
2018-04-07T07:22:13.672Z,100590.80
2018-04-07T07:24:41.960Z,100597.86
2018-04-07T07:27:10.247Z,100601.60
2018-04-07T07:29:38.567Z,100605.87
2018-04-07T07:32:06.802Z,100593.42
2018-04-07T07:34:35.126Z,100593.86
2018-04-07T07:37:03.363Z,100598.62
2018-04-07T07:39:31.645Z,100586.53
2018-04-07T07:41:59.962Z,100590.39
2018-04-07T07:44:28.231Z,100590.03
2018-04-07T07:46:56.520Z,100582.84
2018-04-07T07:49:24.811Z,100589.11
2018-04-07T07:51:53.087Z,100601.70
2018-04-07T07:54:21.376Z,100600.19
2018-04-07T07:56:49.644Z,100594.31
2018-04-07T07:59:17.931Z,100590.66
2018-04-07T08:01:46.927Z,100594.27
2018-04-07T08:04:15.203Z,100591.82
2018-04-07T08:06:43.488Z,100586.11
2018-04-07T08:09:11.763Z,100570.66
2018-04-07T08:11:40.046Z,100578.36
2018-04-07T08:14:08.311Z,100592.31
2018-04-07T08:16:36.640Z,100588.58
2018-04-07T08:19:04.908Z,100572.88
2018-04-07T08:21:33.181Z,100581.65
2018-04-07T08:24:01.465Z,100568.55
2018-04-07T08:26:29.740Z,100575.01
2018-04-07T08:28:58.019Z,100575.59
2018-04-07T08:31:26.291Z,100573.78
2018-04-07T08:33:54.582Z,100583.66
2018-04-07T08:36:22.862Z,100581.42
2018-04-07T08:38:51.143Z,100581.81
2018-04-07T08:41:19.423Z,100574.88
2018-04-07T08:43:47.696Z,100577.13
2018-04-07T08:46:15.984Z,100575.69
2018-04-07T08:48:44.258Z,100582.50
2018-04-07T08:51:12.543Z,100574.73
2018-04-07T08:53:40.815Z,100571.54
2018-04-07T08:56:09.087Z,100575.54
2018-04-07T08:58:37.372Z,100579.27
2018-04-07T09:01:05.644Z,100572.27
2018-04-07T09:03:33.938Z,100570.99
2018-04-07T09:06:02.203Z,100568.78
2018-04-07T09:08:30.499Z,100567.25
2018-04-07T09:10:58.773Z,100563.77
2018-04-07T09:13:27.042Z,100573.02
2018-04-07T09:15:55.327Z,100569.97
2018-04-07T09:18:23.607Z,100571.44
2018-04-07T09:20:51.885Z,100572.17
2018-04-07T09:23:20.159Z,100577.53
2018-04-07T09:25:48.705Z,100571.94
2018-04-07T09:28:16.978Z,100565.07
2018-04-07T09:30:45.255Z,100561.41
2018-04-07T09:33:13.547Z,100563.37
2018-04-07T09:35:41.824Z,100564.52
2018-04-07T09:38:10.103Z,100559.66
2018-04-07T09:40:38.374Z,100563.49
2018-04-07T09:43:06.915Z,100553.80
2018-04-07T09:45:35.198Z,100555.48
2018-04-07T09:48:03.468Z,100555.42
2018-04-07T09:53:28.543Z,100559.00
2018-04-07T09:55:56.835Z,100548.64
2018-04-07T09:58:25.112Z,100540.55
2018-04-07T10:00:53.380Z,100546.47
2018-04-07T10:03:22.315Z,100543.30
2018-04-07T10:05:50.591Z,100532.89
2018-04-07T10:08:18.884Z,100547.17
2018-04-07T10:10:47.165Z,100529.92
2018-04-07T10:13:15.437Z,100536.34
2018-04-07T10:15:43.725Z,100538.63
2018-04-07T10:18:11.994Z,100523.39
2018-04-07T10:20:40.279Z,100537.51
2018-04-07T10:23:08.559Z,100528.56
2018-04-07T10:25:36.835Z,100526.42
2018-04-07T10:28:05.120Z,100522.17
2018-04-07T10:30:33.391Z,100534.18
2018-04-07T10:33:01.684Z,100517.45
2018-04-07T10:35:29.965Z,100522.66
2018-04-07T10:37:58.235Z,100518.98
2018-04-07T10:40:26.517Z,100516.02
2018-04-07T10:42:54.796Z,100519.89
2018-04-07T10:45:23.090Z,100517.07
2018-04-07T10:47:51.367Z,100504.75
2018-04-07T10:50:19.654Z,100506.23
2018-04-07T10:52:47.960Z,100496.85
2018-04-07T10:55:16.227Z,100488.05
2018-04-07T10:57:44.544Z,100494.05
2018-04-07T11:00:12.820Z,100488.05
2018-04-07T11:02:41.107Z,100478.07
2018-04-07T11:05:09.392Z,100490.25
2018-04-07T11:07:37.666Z,100479.03
2018-04-07T11:10:05.959Z,100481.03
2018-04-07T11:12:34.251Z,100465.03
2018-04-07T11:15:02.537Z,100465.00
2018-04-07T11:17:30.823Z,100461.88
2018-04-07T11:19:59.093Z,100448.35
2018-04-07T11:22:27.388Z,100445.24
2018-04-07T11:24:55.663Z,100442.84
2018-04-07T11:27:23.944Z,100447.86
2018-04-07T11:29:52.238Z,100449.42
2018-04-07T11:32:20.499Z,100444.77
2018-04-07T11:34:48.791Z,100438.88
2018-04-07T11:37:17.079Z,100449.47
2018-04-07T11:39:45.347Z,100448.33
2018-04-07T11:42:13.631Z,100443.48
2018-04-07T11:44:41.916Z,100445.45
2018-04-07T11:47:10.214Z,100444.70
2018-04-07T11:49:38.495Z,100434.16
2018-04-07T11:52:06.804Z,100425.08
2018-04-07T11:54:35.092Z,100433.73
2018-04-07T11:57:03.363Z,100421.14
2018-04-07T11:59:31.651Z,100419.88
2018-04-07T12:01:59.932Z,100408.67
2018-04-07T12:04:28.212Z,100417.06
2018-04-07T12:06:56.500Z,100410.83
2018-04-07T12:09:24.779Z,100416.64
2018-04-07T12:11:53.091Z,100400.70
2018-04-07T12:14:21.364Z,100414.14
2018-04-07T12:16:49.648Z,100405.64
2018-04-07T12:19:18.178Z,100403.37
2018-04-07T12:21:46.451Z,100403.39
2018-04-07T12:24:14.755Z,100398.70
2018-04-07T12:26:43.032Z,100401.33
2018-04-07T12:29:11.303Z,100404.33
2018-04-07T12:31:39.594Z,100396.27
2018-04-07T12:34:07.870Z,100392.06
2018-04-07T12:36:36.152Z,100388.41
2018-04-07T12:39:04.452Z,100385.48
2018-04-07T12:41:32.728Z,100391.73
2018-04-07T12:44:01.016Z,100384.25
2018-04-07T12:46:29.291Z,100367.00
2018-04-07T12:48:57.583Z,100367.32
2018-04-07T12:51:25.852Z,100370.78
2018-04-07T12:53:54.123Z,100362.71
2018-04-07T12:56:22.411Z,100370.10
2018-04-07T12:58:50.691Z,100365.61
2018-04-07T13:01:19.027Z,100350.01
2018-04-07T13:03:47.439Z,100345.65
2018-04-07T13:06:15.715Z,100334.41
2018-04-07T13:08:44.004Z,100336.28
2018-04-07T13:11:12.281Z,100323.44
2018-04-07T13:13:40.588Z,100325.78
2018-04-07T13:16:08.908Z,100317.52
2018-04-07T13:18:37.189Z,100318.33
2018-04-07T13:21:05.468Z,100310.22
2018-04-07T13:23:33.743Z,100309.23
2018-04-07T13:26:02.056Z,100307.98
2018-04-07T13:28:30.320Z,100306.64
2018-04-07T13:30:58.595Z,100290.91
2018-04-07T13:33:38.369Z,100289.95
2018-04-07T13:35:55.151Z,100290.84
2018-04-07T13:38:23.431Z,100288.97
2018-04-07T13:40:51.727Z,100276.92
2018-04-07T13:43:20.003Z,100279.01
2018-04-07T13:45:48.279Z,100280.41
2018-04-07T13:48:16.559Z,100267.52
2018-04-07T13:50:44.855Z,100264.84
2018-04-07T13:53:13.132Z,100250.75
2018-04-07T13:55:41.417Z,100249.36
2018-04-07T13:58:09.707Z,100248.44
2018-04-07T14:00:37.984Z,100254.23
2018-04-07T14:03:06.273Z,100247.34
2018-04-07T14:05:34.552Z,100236.73
2018-04-07T14:08:02.824Z,100243.23
2018-04-07T14:10:31.111Z,100241.06
2018-04-07T14:12:59.388Z,100245.08
2018-04-07T14:15:27.684Z,100247.92
2018-04-07T14:17:56.177Z,100237.06
2018-04-07T14:20:24.448Z,100225.41
2018-04-07T14:22:52.735Z,100227.84
2018-04-07T14:25:21.007Z,100225.62
2018-04-07T14:27:49.303Z,100226.25
2018-04-07T14:30:17.579Z,100221.42
2018-04-07T14:32:45.859Z,100223.17
2018-04-07T14:35:14.143Z,100213.02
2018-04-07T14:37:42.420Z,100214.63
2018-04-07T14:40:10.719Z,100202.97
2018-04-07T14:42:38.996Z,100207.84
2018-04-07T14:45:07.275Z,100210.31
2018-04-07T14:47:35.555Z,100215.68
2018-04-07T14:50:03.831Z,100214.61
2018-04-07T14:52:32.133Z,100207.81
2018-04-07T14:55:00.414Z,100209.61
2018-04-07T14:57:28.679Z,100215.07
2018-04-07T14:59:57.800Z,100223.75
2018-04-07T15:02:26.071Z,100214.70
2018-04-07T15:04:54.375Z,100211.63
2018-04-07T15:07:22.648Z,100209.77
2018-04-07T15:09:50.964Z,100207.63
2018-04-07T15:12:19.252Z,100200.09
2018-04-07T15:14:47.531Z,100208.14
2018-04-07T15:17:15.827Z,100196.19
2018-04-07T15:19:44.119Z,100199.06
2018-04-07T15:22:12.380Z,100200.42
2018-04-07T15:24:40.672Z,100198.09
2018-04-07T15:27:08.947Z,100197.88
2018-04-07T15:29:37.240Z,100201.29
2018-04-07T15:32:05.512Z,100198.77
2018-04-07T15:34:33.780Z,100203.64
2018-04-07T15:37:02.063Z,100204.42
2018-04-07T15:39:30.363Z,100200.02
2018-04-07T15:41:58.653Z,100211.16
2018-04-07T15:44:26.930Z,100198.81
2018-04-07T15:46:55.205Z,100195.62
2018-04-07T15:49:23.484Z,100198.59
2018-04-07T15:51:51.759Z,100192.63
2018-04-07T15:54:20.057Z,100199.45
2018-04-07T15:56:48.334Z,100180.89
2018-04-07T15:59:16.690Z,100180.48
2018-04-07T16:01:44.931Z,100181.95
2018-04-07T16:04:13.208Z,100178.36
2018-04-07T16:06:41.505Z,100175.98
2018-04-07T16:09:09.787Z,100174.44
2018-04-07T16:11:38.063Z,100170.95
2018-04-07T16:14:06.344Z,100176.77
2018-04-07T16:16:34.620Z,100177.84
2018-04-07T16:19:02.914Z,100176.91
2018-04-07T16:21:31.182Z,100173.77
2018-04-07T16:23:59.459Z,100175.31
2018-04-07T16:26:27.739Z,100167.95
2018-04-07T16:28:56.007Z,100170.16
2018-04-07T16:31:24.299Z,100167.39
2018-04-07T16:33:52.563Z,100169.17
2018-04-07T16:36:20.839Z,100174.98
2018-04-07T16:38:49.112Z,100172.97
2018-04-07T16:41:17.391Z,100174.28
2018-04-07T16:43:45.687Z,100170.11
2018-04-07T16:46:13.951Z,100169.06
2018-04-07T16:48:42.223Z,100163.38
2018-04-07T16:51:10.503Z,100168.11
2018-04-07T16:53:38.771Z,100167.64
2018-04-07T16:56:07.049Z,100163.50
2018-04-07T16:58:35.329Z,100165.73
2018-04-07T17:01:03.599Z,100171.12
2018-04-07T17:03:31.883Z,100169.33
2018-04-07T17:06:00.156Z,100175.30
2018-04-07T17:08:28.435Z,100179.94
2018-04-07T17:10:56.707Z,100185.59
2018-04-07T17:13:24.971Z,100176.88
2018-04-07T17:15:53.315Z,100177.34
2018-04-07T17:18:21.595Z,100180.21
2018-04-07T17:20:49.863Z,100189.37
2018-04-07T17:23:18.144Z,100185.78
2018-04-07T17:25:46.419Z,100182.66
2018-04-07T17:28:14.716Z,100183.45
2018-04-07T17:30:42.986Z,100187.41
2018-04-07T17:33:11.260Z,100186.77
2018-04-07T17:35:39.543Z,100197.14
2018-04-07T17:38:07.817Z,100196.33
2018-04-07T17:40:36.100Z,100196.44
2018-04-07T17:43:04.367Z,100195.27
2018-04-07T17:45:32.666Z,100193.05
2018-04-07T17:48:00.955Z,100198.84
2018-04-07T17:50:29.247Z,100196.86
2018-04-07T17:52:57.548Z,100209.98
2018-04-07T17:55:25.820Z,100206.23
2018-04-07T17:57:54.097Z,100198.91
2018-04-07T18:00:22.384Z,100200.55
2018-04-07T18:02:50.651Z,100202.67
2018-04-07T18:05:18.951Z,100206.31
2018-04-07T18:07:47.231Z,100209.39
2018-04-07T18:10:15.496Z,100216.10
2018-04-07T18:12:43.788Z,100214.05
2018-04-07T18:15:12.076Z,100215.33
2018-04-07T18:17:40.360Z,100224.33
2018-04-07T18:20:08.632Z,100224.61
2018-04-07T18:22:36.901Z,100222.16
2018-04-07T18:25:05.208Z,100230.02
2018-04-07T18:27:33.446Z,100223.64
2018-04-07T18:30:01.746Z,100227.78
2018-04-07T18:32:30.012Z,100230.63
2018-04-07T18:34:58.287Z,100229.47
2018-04-07T18:37:26.576Z,100232.70
2018-04-07T18:39:54.852Z,100237.39
2018-04-07T18:42:23.131Z,100240.23
2018-04-07T18:44:51.401Z,100246.46
2018-04-07T18:47:19.672Z,100240.41
2018-04-07T18:49:47.953Z,100247.06
2018-04-07T18:52:16.220Z,100251.08
2018-04-07T18:54:44.505Z,100252.58
2018-04-07T18:57:12.771Z,100257.63
2018-04-07T18:59:41.052Z,100259.99
2018-04-07T19:02:09.352Z,100268.56
2018-04-07T19:04:37.631Z,100263.38
2018-04-07T19:07:05.929Z,100265.98
2018-04-07T19:09:34.191Z,100272.11
2018-04-07T19:12:02.464Z,100270.81
2018-04-07T19:14:30.747Z,100270.06
2018-04-07T19:16:59.015Z,100274.11
2018-04-07T19:19:27.307Z,100273.83
2018-04-07T19:21:55.896Z,100278.16
2018-04-07T19:24:24.163Z,100278.02
2018-04-07T19:26:52.449Z,100280.92
2018-04-07T19:29:20.730Z,100279.89
2018-04-07T19:31:49.016Z,100281.25
2018-04-07T19:34:17.287Z,100283.88
2018-04-07T19:36:45.560Z,100287.31
2018-04-07T19:39:13.843Z,100288.14
2018-04-07T19:41:42.120Z,100284.93
2018-04-07T19:44:10.413Z,100288.77
2018-04-07T19:46:38.684Z,100294.83
2018-04-07T19:49:06.959Z,100294.36
2018-04-07T19:51:35.239Z,100292.92
2018-04-07T19:54:03.525Z,100294.14
2018-04-07T19:56:31.819Z,100294.41
2018-04-07T19:59:00.121Z,100292.66
2018-04-07T20:01:28.420Z,100298.20
2018-04-07T20:03:56.701Z,100305.88
2018-04-07T20:06:31.319Z,100306.17
2018-04-07T20:08:59.619Z,100302.77
2018-04-07T20:11:27.915Z,100298.27
2018-04-07T20:13:56.191Z,100300.70
2018-04-07T20:16:24.480Z,100293.55
2018-04-07T20:18:52.755Z,100299.78
2018-04-07T20:21:21.035Z,100287.02
2018-04-07T20:23:49.320Z,100297.36
2018-04-07T20:26:17.600Z,100298.12
2018-04-07T20:28:45.891Z,100293.37
2018-04-07T20:31:14.167Z,100296.20
2018-04-07T20:33:42.439Z,100293.06
2018-04-07T20:36:10.721Z,100284.83
2018-04-07T20:38:38.999Z,100281.75
2018-04-07T20:41:07.283Z,100288.16
2018-04-07T20:43:35.561Z,100283.95
2018-04-07T20:46:03.843Z,100286.50
2018-04-07T20:48:32.128Z,100286.74
2018-04-07T20:51:00.400Z,100279.81
2018-04-07T20:53:28.707Z,100283.09
2018-04-07T20:55:56.983Z,100288.81
2018-04-07T20:58:25.272Z,100279.84
2018-04-07T21:00:53.559Z,100280.84
2018-04-07T21:03:21.823Z,100277.94
2018-04-07T21:05:50.148Z,100281.64
2018-04-07T21:08:18.387Z,100276.30
2018-04-07T21:10:46.663Z,100276.48
2018-04-07T21:13:14.968Z,100272.16
2018-04-07T21:15:43.215Z,100277.58
2018-04-07T21:18:11.503Z,100277.46
2018-04-07T21:20:39.808Z,100281.62
2018-04-07T21:23:08.068Z,100274.70
2018-04-07T21:25:36.356Z,100277.11
2018-04-07T21:28:04.635Z,100274.55
2018-04-07T21:30:32.947Z,100280.25
2018-04-07T21:33:01.227Z,100278.01
2018-04-07T21:35:29.553Z,100277.70
2018-04-07T21:37:57.792Z,100280.52
2018-04-07T21:40:26.063Z,100277.55
2018-04-07T21:42:54.367Z,100277.29
2018-04-07T21:45:22.657Z,100274.41
2018-04-07T21:47:50.928Z,100274.50
2018-04-07T21:50:19.212Z,100283.23
2018-04-07T21:52:47.487Z,100272.06
2018-04-07T21:55:15.776Z,100279.56
2018-04-07T21:57:44.048Z,100275.11
2018-04-07T22:00:12.323Z,100268.41
2018-04-07T22:02:40.606Z,100275.67
2018-04-07T22:05:08.884Z,100275.70
2018-04-07T22:07:37.175Z,100276.27
2018-04-07T22:10:05.456Z,100275.33
2018-04-07T22:12:33.727Z,100274.82
2018-04-07T22:15:02.012Z,100277.53
2018-04-07T22:17:30.280Z,100278.66
2018-04-07T22:19:58.563Z,100274.82
2018-04-07T22:22:26.839Z,100267.44
2018-04-07T22:24:55.110Z,100273.11
2018-04-07T22:27:23.392Z,100272.85
2018-04-07T22:29:51.667Z,100271.42
2018-04-07T22:32:19.965Z,100266.58
2018-04-07T22:34:48.232Z,100268.03
2018-04-07T22:37:16.503Z,100267.79
2018-04-07T22:39:44.784Z,100266.88
2018-04-07T22:42:13.059Z,100266.43
2018-04-07T22:44:41.378Z,100268.26
2018-04-07T22:47:09.635Z,100266.50
2018-04-07T22:49:37.919Z,100263.33
2018-04-07T22:52:06.196Z,100254.98
2018-04-07T22:54:34.477Z,100265.45
2018-04-07T22:57:02.768Z,100259.00
2018-04-07T22:59:31.041Z,100255.97
2018-04-07T23:01:59.315Z,100258.09
2018-04-07T23:04:27.603Z,100270.14
2018-04-07T23:06:55.871Z,100272.34
2018-04-07T23:09:24.179Z,100269.00
2018-04-07T23:11:52.507Z,100262.08
2018-04-07T23:14:20.785Z,100260.66
2018-04-07T23:16:49.067Z,100273.61
2018-04-07T23:19:17.339Z,100272.89
2018-04-07T23:21:45.964Z,100269.27
2018-04-07T23:24:14.231Z,100264.19
2018-04-07T23:26:42.507Z,100259.84
2018-04-07T23:29:10.791Z,100263.00
2018-04-07T23:31:39.063Z,100262.28
2018-04-07T23:34:07.346Z,100259.41
2018-04-07T23:36:35.619Z,100257.20
2018-04-07T23:39:03.898Z,100263.20
2018-04-07T23:41:32.186Z,100258.73
2018-04-07T23:44:00.454Z,100258.77
2018-04-07T23:46:28.732Z,100254.96
2018-04-07T23:48:57.011Z,100264.55
2018-04-07T23:51:25.283Z,100260.86
2018-04-07T23:53:53.567Z,100256.81
2018-04-07T23:56:21.841Z,100250.78
2018-04-07T23:58:50.136Z,100244.45
